NCAR-RAP Real-Time Weather Data

Output produced by METARs form (19 June 2018  07:01 UTC)
found at http://weather.rap.ucar.edu/surface/
 
Conditions at: KTPA observed 19 June 2018  06:53 UTC
Temperature: 26.7°C (80°F)
Dewpoint: 22.2°C (72°F) [RH = 76%]
Pressure (altimeter): 30.03 inches Hg (1017.0 mb)
[Sea-level pressure: 1016.9 mb]
Winds: from the ESE (110 degrees) at 5 MPH (4 knots; 2.1 m/s)
Visibility: 10 or more miles (16+ km)
Ceiling: at least 12,000 feet AGL
Clouds: few clouds at 4500 feet AGL
scattered clouds at 19000 feet AGL
Present Weather: no significant weather observed at this time
KTPA 190653Z 11004KT 10SM R01L/2000V3500FT FEW045 SCT190 27/22 A3003 RMK AO2 SLP169 T02670222

Conditions at: KTPA observed 19 June 2018  05:53 UTC
Temperature: 27.2°C (81°F)
Dewpoint: 22.2°C (72°F) [RH = 74%]
Pressure (altimeter): 30.05 inches Hg (1017.7 mb)
[Sea-level pressure: 1017.5 mb]
Winds: from the ESE (120 degrees) at 6 MPH (5 knots; 2.6 m/s)
Visibility: 10 or more miles (16+ km)
Ceiling: at least 12,000 feet AGL
Clouds: few clouds at 8000 feet AGL
few clouds at 20000 feet AGL
Present Weather: no significant weather observed at this time
KTPA 190553Z 12005KT 10SM FEW080 FEW200 27/22 A3005 RMK AO2 SLP175 T02720222 10289 20267 58005

Conditions at: KTPA observed 19 June 2018  04:53 UTC
Temperature: 28.3°C (83°F)
Dewpoint: 22.8°C (73°F) [RH = 72%]
Pressure (altimeter): 30.06 inches Hg (1018.0 mb)
[Sea-level pressure: 1017.9 mb]
Winds: variable direction winds at 3 MPH (3 knots; 1.6 m/s)
Visibility: 10 or more miles (16+ km)
Ceiling: at least 12,000 feet AGL
Clouds: few clouds at 4500 feet AGL
few clouds at 25000 feet AGL
Present Weather: no significant weather observed at this time
KTPA 190453Z VRB03KT 10SM FEW045 FEW250 28/23 A3006 RMK AO2 SLP179 T02830228 403280261

Conditions at: KTPA observed 19 June 2018  03:53 UTC
Temperature: 28.3°C (83°F)
Dewpoint: 22.8°C (73°F) [RH = 72%]
Pressure (altimeter): 30.08 inches Hg (1018.7 mb)
[Sea-level pressure: 1018.4 mb]
Winds: from the NNE (30 degrees) at 5 MPH (4 knots; 2.1 m/s)
Visibility: 10 or more miles (16+ km)
Ceiling: 3500 feet AGL
Clouds: broken clouds at 3500 feet AGL
broken clouds at 25000 feet AGL
Present Weather: no significant weather observed at this time
KTPA 190353Z 03004KT 10SM BKN035 BKN250 28/23 A3008 RMK AO2 LTG DSNT N AND NW SLP184 T02830228

Conditions at: KTPA observed 19 June 2018  02:53 UTC
Temperature: 28.3°C (83°F)
Dewpoint: 22.8°C (73°F) [RH = 72%]
Pressure (altimeter): 30.07 inches Hg (1018.4 mb)
[Sea-level pressure: 1018.0 mb]
Winds: from the NNE (30 degrees) at 3 MPH (3 knots; 1.6 m/s)
Visibility: 10 or more miles (16+ km)
Ceiling: 30000 feet AGL
Clouds: few clouds at 3500 feet AGL
few clouds at 6500 feet AGL
broken clouds at 30000 feet AGL
Present Weather: no significant weather observed at this time
KTPA 190253Z 03003KT 10SM FEW035 FEW065 BKN300 28/23 A3007 RMK AO2 SLP180 T02830228 51006

Conditions at: KTPA observed 19 June 2018  01:53 UTC
Temperature: 27.8°C (82°F)
Dewpoint: 23.3°C (74°F) [RH = 77%]
Pressure (altimeter): 30.07 inches Hg (1018.4 mb)
[Sea-level pressure: 1018.0 mb]
Winds: from the N (350 degrees) at 7 MPH (6 knots; 3.1 m/s)
Visibility: 10 or more miles (16+ km)
Ceiling: 5500 feet AGL
Clouds: broken clouds at 5500 feet AGL
Present Weather: no significant weather observed at this time
KTPA 190153Z 35006KT 10SM BKN055 28/23 A3007 RMK AO2 LTG DSNT N AND NW SLP180 OCNL LTGIC DSNT NW CB DSNT NW T02780233

Conditions at: KTPA observed 19 June 2018  00:53 UTC
Temperature: 26.7°C (80°F)
Dewpoint: 22.8°C (73°F) [RH = 79%]
Pressure (altimeter): 30.05 inches Hg (1017.7 mb)
[Sea-level pressure: 1017.6 mb]
Winds: from the N (350 degrees) at 6 MPH (5 knots; 2.6 m/s)
Visibility: 10 or more miles (16+ km)
Ceiling: 23000 feet AGL
Clouds: scattered clouds at 3700 feet AGL
broken clouds at 23000 feet AGL
Present Weather: no significant weather observed at this time
KTPA 190053Z 35005KT 10SM SCT037TCU BKN230 27/23 A3005 RMK AO2 TSE31 SLP176 OCNL LTGIC DSNT NW-N CB DSNT NW-N TCU S T02670228

Conditions at: KTPA observed 19 June 2018  00:31 UTC
Temperature: 27.2°C (81°F)
Dewpoint: 22.2°C (72°F) [RH = 74%]
Pressure (altimeter): 30.05 inches Hg (1017.7 mb)
Winds: from the N (350 degrees) at 6 MPH (5 knots; 2.6 m/s)
Visibility: 10 or more miles (16+ km)
Ceiling: 3700 feet AGL
Clouds: broken clouds at 3700 feet AGL
broken clouds at 23000 feet AGL
Present Weather: no significant weather observed at this time
KTPA 190031Z 35005KT 10SM BKN037CB BKN230CB 27/22 A3005 RMK AO2 LTG DSNT SW TSE31 CB S-W MOV SW CBMAM W TCU S-W T02720222

Conditions at: KTPA observed 18 June 2018  23:53 UTC
Temperature: 29.0°C (84°F)
Dewpoint: 23.0°C (73°F) [RH = 70%]
Pressure (altimeter): 30.05 inches Hg (1017.7 mb)
[Sea-level pressure: 1017.4 mb]
Winds: from the N (350 degrees) at 7 MPH (6 knots; 3.1 m/s)
Visibility: 10 or more miles (16+ km)
Ceiling: 3700 feet AGL
Clouds: broken clouds at 3700 feet AGL
broken clouds at 6000 feet AGL
broken clouds at 24000 feet AGL
Present Weather: TS  (thunderstorm)
KTPA 182353Z 35006KT 10SM TS BKN037CB BKN060 BKN240 29/23 A3005 RMK AO2 WSHFT 2319 LTG DSNT N AND S AND SW RAB10E37 TSE06B13 SLP174 OCNL LTGCG S-SW AND NW-N TS S-SW AND NW-N MOV SW CB DSNT NE AND SE TCU NE AND S A

Conditions at: KTPA observed 18 June 2018  23:37 UTC
Temperature: 27.8°C (82°F)
Dewpoint: 22.2°C (72°F) [RH = 72%]
Pressure (altimeter): 30.04 inches Hg (1017.4 mb)
Winds: from the S (180 degrees) at 12 MPH (10 knots; 5.2 m/s)
Visibility: 7 miles (11 km)
Ceiling: 3700 feet AGL
Clouds: broken clouds at 3700 feet AGL
broken clouds at 6000 feet AGL
overcast cloud deck at 24000 feet AGL
Present Weather: TS  (thunderstorm)
KTPA 182337Z 18010KT 7SM TS BKN037CB BKN060 OVC240 28/22 A3004 RMK AO2 WSHFT 2319 LTG DSNT N AND NE AND S RAB10E37 TSE06B13 OCNL LTGCG N TS N MOV SW CB S MOV SW TCU NE AND S VCSH N AND S P0004 T02780222

Conditions at: KTPA observed 18 June 2018  23:14 UTC
Temperature: 31.7°C (89°F)
Dewpoint: 23.3°C (74°F) [RH = 61%]
Pressure (altimeter): 30.03 inches Hg (1017.0 mb)
Winds: from the WSW (250 degrees) at 6 MPH (5 knots; 2.6 m/s)
Visibility: 6 miles (10 km)
Ceiling: 5500 feet AGL
Clouds: broken clouds at 5500 feet AGL
broken clouds at 34000 feet AGL
Present Weather: -TSRA  (light rain associated with thunderstorm(s))
KTPA 182314Z 25005KT 6SM -TSRA BKN055CB BKN340 32/23 A3003 RMK AO2 LTG DSNT N AND S RAB10 TSE06B13 OCNL LTGCG N TS N MOV SW TCU NW-S P0000 T03170233

Conditions at: KTPA observed 18 June 2018  23:06 UTC
Temperature: 32.2°C (90°F)
Dewpoint: 23.3°C (74°F) [RH = 59%]
Pressure (altimeter): 30.02 inches Hg (1016.7 mb)
Winds: from the WNW (290 degrees) at 9 MPH (8 knots; 4.2 m/s)
Visibility: 10 or more miles (16+ km)
Ceiling: 34000 feet AGL
Clouds: scattered clouds at 5500 feet AGL
broken clouds at 34000 feet AGL
Present Weather: VCTS  (thunderstorm in vicinity)
KTPA 182306Z 29008KT 10SM VCTS SCT055TCU BKN340 32/23 A3002 RMK AO2 LTG DSNT N AND S TSE06 CB DSNT N AND NE AND SE TCU NW-S VCSH N T03220233

Conditions at: KTPA observed 18 June 2018  22:53 UTC
Temperature: 32.2°C (90°F)
Dewpoint: 23.3°C (74°F) [RH = 59%]
Pressure (altimeter): 30.03 inches Hg (1017.0 mb)
[Sea-level pressure: 1016.7 mb]
Winds: from the W (270 degrees) at 10 MPH (9 knots; 4.7 m/s)
Visibility: 10 or more miles (16+ km)
Ceiling: 34000 feet AGL
Clouds: few clouds at 5500 feet AGL
broken clouds at 34000 feet AGL
Present Weather: TS  (thunderstorm)
KTPA 182253Z COR 27009KT 10SM TS FEW055CB BKN340 32/23 A3003 RMK AO2 TSB29 SLP167 OCNL LTGCG VC NE TS VC NE MOV SW TS DVLPG AND DSIPTG RPDLY TCU NW-S T03220233

Conditions at: KTPA observed 18 June 2018  22:29 UTC
Temperature: 32.2°C (90°F)
Dewpoint: 23.3°C (74°F) [RH = 59%]
Pressure (altimeter): 30.03 inches Hg (1017.0 mb)
Winds: from the W (270 degrees) at 8 MPH (7 knots; 3.6 m/s)
Visibility: 10 or more miles (16+ km)
Ceiling: 34000 feet AGL
Clouds: few clouds at 5500 feet AGL
broken clouds at 34000 feet AGL
Present Weather: TS  (thunderstorm)
KTPA 182229Z 27007KT 10SM TS FEW055CB BKN340 32/23 A3003 RMK AO2 LTG DSNT NE TSB29 OCNL LTGCG VC NE TS VC NE MOV SW TCU NW-SE VCSH NE T03220233

Conditions at: KTPA observed 18 June 2018  21:53 UTC
Temperature: 32.2°C (90°F)
Dewpoint: 23.3°C (74°F) [RH = 59%]
Pressure (altimeter): 30.04 inches Hg (1017.4 mb)
[Sea-level pressure: 1017.0 mb]
Winds: from the W (270 degrees) at 8 MPH (7 knots; 3.6 m/s)
Visibility: 10 or more miles (16+ km)
Ceiling: 4500 feet AGL
Clouds: broken clouds at 4500 feet AGL
broken clouds at 34000 feet AGL
Present Weather: no significant weather observed at this time
KTPA 182153Z 27007KT 10SM BKN045TCU BKN340 32/23 A3004 RMK AO2 TSE02 SLP170 VIRGA W CB DSNT E-SE TCU OHD AND ALQDS SHRA DSNT E-SE T03220233

Conditions at: KTPA observed 18 June 2018  21:02 UTC
Temperature: 31.7°C (89°F)
Dewpoint: 21.7°C (71°F) [RH = 56%]
Pressure (altimeter): 30.04 inches Hg (1017.4 mb)
Winds: from the WSW (250 degrees) at 6 MPH (5 knots; 2.6 m/s)
Visibility: 10 or more miles (16+ km)
Ceiling: 4500 feet AGL
Clouds: broken clouds at 4500 feet AGL
broken clouds at 34000 feet AGL
Present Weather: no significant weather observed at this time
KTPA 182102Z 25005KT 10SM BKN045TCU BKN340 32/22 A3004 RMK AO2 TSE02 CB DSNT NE-E TCU OHD AND ALQDS SHRA DSNT E T03170217

Conditions at: KTPA observed 18 June 2018  20:53 UTC
Temperature: 31.7°C (89°F)
Dewpoint: 22.2°C (72°F) [RH = 57%]
Pressure (altimeter): 30.04 inches Hg (1017.4 mb)
[Sea-level pressure: 1017.3 mb]
Winds: from the WSW (250 degrees) at 5 MPH (4 knots; 2.1 m/s)
Visibility: 10 or more miles (16+ km)
Ceiling: 4500 feet AGL
Clouds: broken clouds at 4500 feet AGL
broken clouds at 34000 feet AGL
Present Weather: TS  (thunderstorm)
KTPA 182053Z 25004KT 10SM TS BKN045CB BKN340 32/22 A3004 RMK AO2 LTG DSNT E RAB05E14 TSB33 SLP173 OCNL LTGCG VC SW-W TS VC SW-W MOV SW CB DSNT NE-E TCU OHD AND ALQDS SHRA DSNT E P0003 60003 T03170222 56021

Conditions at: KTPA observed 18 June 2018  20:33 UTC
Temperature: 30.6°C (87°F)
Dewpoint: 22.8°C (73°F) [RH = 63%]
Pressure (altimeter): 30.05 inches Hg (1017.7 mb)
Winds: from the W (260 degrees) at 7 MPH (6 knots; 3.1 m/s)
Visibility: 10 or more miles (16+ km)
Ceiling: 34000 feet AGL
Clouds: scattered clouds at 4500 feet AGL
broken clouds at 34000 feet AGL
Present Weather: TS  (thunderstorm)
KTPA 182033Z 26006KT 10SM TS SCT045CB BKN340 31/23 A3005 RMK AO2 LTG DSNT E RAB05E14 TSB33 OCNL LTGCG SW-W TS SW-W CB DSNT NE TCU ALQDS VCSH SW-W P0003 T03060228

Conditions at: KTPA observed 18 June 2018  19:53 UTC
Temperature: 31.7°C (89°F)
Dewpoint: 21.7°C (71°F) [RH = 56%]
Pressure (altimeter): 30.06 inches Hg (1018.0 mb)
[Sea-level pressure: 1017.9 mb]
Winds: from the SW (220 degrees) at 7 MPH (6 knots; 3.1 m/s)
Visibility: 10 or more miles (16+ km)
Ceiling: 4700 feet AGL
Clouds: broken clouds at 4700 feet AGL
broken clouds at 34000 feet AGL
Present Weather: no significant weather observed at this time
KTPA 181953Z 22006KT 10SM BKN047TCU BKN340 32/22 A3006 RMK AO2 SLP179 TCU OHD AND ALQDS T03170217

Conditions at: KTPA observed 18 June 2018  18:53 UTC
Temperature: 32.8°C (91°F)
Dewpoint: 22.2°C (72°F) [RH = 54%]
Pressure (altimeter): 30.08 inches Hg (1018.7 mb)
[Sea-level pressure: 1018.6 mb]
Winds: from the W (260 degrees) at 8 MPH (7 knots; 3.6 m/s)
Visibility: 10 or more miles (16+ km)
Ceiling: 5500 feet AGL
Clouds: broken clouds at 5500 feet AGL
broken clouds at 30000 feet AGL
Present Weather: no significant weather observed at this time
KTPA 181853Z 26007KT 10SM BKN055 BKN300 33/22 A3008 RMK AO2 SLP186 CU BLDG OHD AND ALQDS T03280222

Conditions at: KTPA observed 18 June 2018  17:53 UTC
Temperature: 31.7°C (89°F)
Dewpoint: 22.8°C (73°F) [RH = 59%]
Pressure (altimeter): 30.11 inches Hg (1019.7 mb)
[Sea-level pressure: 1019.4 mb]
Winds: from the WSW (250 degrees) at 7 MPH (6 knots; 3.1 m/s)
Visibility: 10 or more miles (16+ km)
Ceiling: 5000 feet AGL
Clouds: broken clouds at 5000 feet AGL
broken clouds at 27000 feet AGL
Present Weather: no significant weather observed at this time
KTPA 181753Z 25006KT 10SM BKN050 BKN270 32/23 A3011 RMK AO2 SLP194 T03170228 10328 20272 58012

Conditions at: KTPA observed 18 June 2018  16:53 UTC
Temperature: 31.1°C (88°F)
Dewpoint: 22.2°C (72°F) [RH = 59%]
Pressure (altimeter): 30.12 inches Hg (1020.1 mb)
[Sea-level pressure: 1019.7 mb]
Winds: from the SW (230 degrees) at 5 MPH (4 knots; 2.1 m/s)
gusting to 16 MPH (14 knots; 7.3 m/s)
Visibility: 10 or more miles (16+ km)
Ceiling: 4000 feet AGL
Clouds: broken clouds at 4000 feet AGL
broken clouds at 27000 feet AGL
Present Weather: no significant weather observed at this time
KTPA 181653Z 23004G14KT 10SM BKN040 BKN270 31/22 A3012 RMK AO2 SLP197 T03110222

Conditions at: KTPA observed 18 June 2018  15:53 UTC
Temperature: 31.7°C (89°F)
Dewpoint: 21.1°C (70°F) [RH = 54%]
Pressure (altimeter): 30.14 inches Hg (1020.7 mb)
[Sea-level pressure: 1020.4 mb]
Winds: calm
Visibility: 10 or more miles (16+ km)
Ceiling: 3500 feet AGL
Clouds: broken clouds at 3500 feet AGL
broken clouds at 27000 feet AGL
Present Weather: no significant weather observed at this time
KTPA 181553Z 00000KT 10SM BKN035 BKN270 32/21 A3014 RMK AO2 SLP204 T03170211

Conditions at: KTPA observed 18 June 2018  14:53 UTC
Temperature: 30.6°C (87°F)
Dewpoint: 21.7°C (71°F) [RH = 59%]
Pressure (altimeter): 30.14 inches Hg (1020.7 mb)
[Sea-level pressure: 1020.6 mb]
Winds: calm
Visibility: 10 or more miles (16+ km)
Ceiling: 27000 feet AGL
Clouds: scattered clouds at 3000 feet AGL
broken clouds at 27000 feet AGL
Present Weather: no significant weather observed at this time
KTPA 181453Z 00000KT 10SM SCT030 BKN270 31/22 A3014 RMK AO2 SLP206 T03060217 50007

Conditions at: KTPA observed 18 June 2018  13:53 UTC
Temperature: 29.4°C (85°F)
Dewpoint: 22.2°C (72°F) [RH = 65%]
Pressure (altimeter): 30.14 inches Hg (1020.7 mb)
[Sea-level pressure: 1020.7 mb]
Winds: from the E (100 degrees) at 5 MPH (4 knots; 2.1 m/s)
Visibility: 10 or more miles (16+ km)
Ceiling: 27000 feet AGL
Clouds: scattered clouds at 2500 feet AGL
broken clouds at 27000 feet AGL
Present Weather: no significant weather observed at this time
KTPA 181353Z 10004KT 10SM SCT025 BKN270 29/22 A3014 RMK AO2 SLP207 T02940222

Conditions at: KTPA observed 18 June 2018  12:53 UTC
Temperature: 28.3°C (83°F)
Dewpoint: 23.3°C (74°F) [RH = 74%]
Pressure (altimeter): 30.13 inches Hg (1020.4 mb)
[Sea-level pressure: 1020.3 mb]
Winds: from the E (100 degrees) at 6 MPH (5 knots; 2.6 m/s)
Visibility: 10 or more miles (16+ km)
Ceiling: 27000 feet AGL
Clouds: few clouds at 2000 feet AGL
broken clouds at 27000 feet AGL
Present Weather: no significant weather observed at this time
KTPA 181253Z 10005KT 10SM FEW020 BKN270 28/23 A3013 RMK AO2 SLP203 T02830233

Conditions at: KTPA observed 18 June 2018  11:53 UTC
Temperature: 27.2°C (81°F)
Dewpoint: 23.3°C (74°F) [RH = 79%]
Pressure (altimeter): 30.12 inches Hg (1020.1 mb)
[Sea-level pressure: 1020.0 mb]
Winds: variable direction winds at 6 MPH (5 knots; 2.6 m/s)
Visibility: 10 or more miles (16+ km)
Ceiling: 27000 feet AGL
Clouds: few clouds at 1500 feet AGL
broken clouds at 27000 feet AGL
Present Weather: no significant weather observed at this time
KTPA 181153Z VRB05KT 10SM FEW015 BKN270 27/23 A3012 RMK AO2 SLP200 T02720233 10278 20261 53014

Conditions at: KTPA observed 18 June 2018  10:53 UTC
Temperature: 26.1°C (79°F)
Dewpoint: 22.8°C (73°F) [RH = 82%]
Pressure (altimeter): 30.11 inches Hg (1019.7 mb)
[Sea-level pressure: 1019.5 mb]
Winds: from the ENE (60 degrees) at 5 MPH (4 knots; 2.1 m/s)
Visibility: 10 or more miles (16+ km)
Ceiling: 30000 feet AGL
Clouds: few clouds at 2500 feet AGL
scattered clouds at 22000 feet AGL
broken clouds at 30000 feet AGL
Present Weather: no significant weather observed at this time
KTPA 181053Z 06004KT 10SM FEW025 SCT220 BKN300 26/23 A3011 RMK AO2 SLP195 T02610228

Conditions at: KTPA observed 18 June 2018  09:53 UTC
Temperature: 26.1°C (79°F)
Dewpoint: 22.8°C (73°F) [RH = 82%]
Pressure (altimeter): 30.09 inches Hg (1019.0 mb)
[Sea-level pressure: 1018.9 mb]
Winds: from the E (80 degrees) at 3 MPH (3 knots; 1.6 m/s)
Visibility: 10 or more miles (16+ km)
Ceiling: 30000 feet AGL
Clouds: broken clouds at 30000 feet AGL
Present Weather: no significant weather observed at this time
KTPA 180953Z 08003KT 10SM BKN300 26/23 A3009 RMK AO2 SLP189 T02610228

Conditions at: KTPA observed 18 June 2018  08:53 UTC
Temperature: 26.1°C (79°F)
Dewpoint: 22.8°C (73°F) [RH = 82%]
Pressure (altimeter): 30.08 inches Hg (1018.7 mb)
[Sea-level pressure: 1018.5 mb]
Winds: from the ENE (70 degrees) at 6 MPH (5 knots; 2.6 m/s)
Visibility: 10 or more miles (16+ km)
Ceiling: 30000 feet AGL
Clouds: broken clouds at 30000 feet AGL
Present Weather: no significant weather observed at this time
KTPA 180853Z 07005KT 10SM BKN300 26/23 A3008 RMK AO2 SLP185 T02610228 56010

Conditions at: KTPA observed 18 June 2018  07:53 UTC
Temperature: 26.7°C (80°F)
Dewpoint: 22.2°C (72°F) [RH = 76%]
Pressure (altimeter): 30.08 inches Hg (1018.7 mb)
[Sea-level pressure: 1018.6 mb]
Winds: calm
Visibility: 10 or more miles (16+ km)
Ceiling: 30000 feet AGL
Clouds: broken clouds at 30000 feet AGL
Present Weather: no significant weather observed at this time
KTPA 180753Z 00000KT 10SM R01L/3500VP6000FT BKN300 27/22 A3008 RMK AO2 SLP186 T02670222

Conditions at: KTPA observed 18 June 2018  06:53 UTC
Temperature: 27.2°C (81°F)
Dewpoint: 22.2°C (72°F) [RH = 74%]
Pressure (altimeter): 30.10 inches Hg (1019.4 mb)
[Sea-level pressure: 1019.2 mb]
Winds: from the ENE (60 degrees) at 3 MPH (3 knots; 1.6 m/s)
Visibility: 10 or more miles (16+ km)
Ceiling: 30000 feet AGL
Clouds: broken clouds at 30000 feet AGL
Present Weather: no significant weather observed at this time
KTPA 180653Z 06003KT 10SM R01L/3000VP6000FT BKN300 27/22 A3010 RMK AO2 SLP192 T02720222

Conditions at: KTPA observed 18 June 2018  05:53 UTC
Temperature: 27.8°C (82°F)
Dewpoint: 22.2°C (72°F) [RH = 72%]
Pressure (altimeter): 30.11 inches Hg (1019.7 mb)
[Sea-level pressure: 1019.6 mb]
Winds: from the E (90 degrees) at 3 MPH (3 knots; 1.6 m/s)
Visibility: 10 or more miles (16+ km)
Ceiling: 30000 feet AGL
Clouds: scattered clouds at 25000 feet AGL
broken clouds at 30000 feet AGL
Present Weather: no significant weather observed at this time
KTPA 180553Z 09003KT 10SM R01L/2000VP6000FT SCT250 BKN300 28/22 A3011 RMK AO2 SLP196 T02780222 10328 20278 58001

Conditions at: KTPA observed 18 June 2018  04:53 UTC
Temperature: 27.8°C (82°F)
Dewpoint: 21.7°C (71°F) [RH = 69%]
Pressure (altimeter): 30.12 inches Hg (1020.1 mb)
[Sea-level pressure: 1019.8 mb]
Winds: calm
Visibility: 10 or more miles (16+ km)
Ceiling: 30000 feet AGL
Clouds: scattered clouds at 25000 feet AGL
broken clouds at 30000 feet AGL
Present Weather: no significant weather observed at this time
KTPA 180453Z 00000KT 10SM R01L/5000VP6000FT SCT250 BKN300 28/22 A3012 RMK AO2 SLP198 T02780217 403500256

Conditions at: KTPA observed 18 June 2018  03:53 UTC
Temperature: 28.3°C (83°F)
Dewpoint: 21.1°C (70°F) [RH = 65%]
Pressure (altimeter): 30.13 inches Hg (1020.4 mb)
[Sea-level pressure: 1020.2 mb]
Winds: variable direction winds at 3 MPH (3 knots; 1.6 m/s)
Visibility: 10 or more miles (16+ km)
Ceiling: 30000 feet AGL
Clouds: few clouds at 4000 feet AGL
scattered clouds at 25000 feet AGL
broken clouds at 30000 feet AGL
Present Weather: no significant weather observed at this time
KTPA 180353Z VRB03KT 10SM FEW040 SCT250 BKN300 28/21 A3013 RMK AO2 SLP202 OCNL LTGICCA DSNT S CB DSNT S T02830211

Conditions at: KTPA observed 18 June 2018  02:53 UTC
Temperature: 28.3°C (83°F)
Dewpoint: 21.1°C (70°F) [RH = 65%]
Pressure (altimeter): 30.12 inches Hg (1020.1 mb)
[Sea-level pressure: 1019.7 mb]
Winds: from the NE (50 degrees) at 6 MPH (5 knots; 2.6 m/s)
Visibility: 10 or more miles (16+ km)
Ceiling: 34000 feet AGL
Clouds: few clouds at 4000 feet AGL
few clouds at 25000 feet AGL
overcast cloud deck at 34000 feet AGL
Present Weather: no significant weather observed at this time
KTPA 180253Z 05005KT 10SM FEW040 FEW250 OVC340 28/21 A3012 RMK AO2 SLP197 FRQ LTGICCC DSNT SW AND NW CB DSNT SW AND NW T02830211 51020

Conditions at: KTPA observed 18 June 2018  01:53 UTC
Temperature: 28.9°C (84°F)
Dewpoint: 20.6°C (69°F) [RH = 61%]
Pressure (altimeter): 30.11 inches Hg (1019.7 mb)
[Sea-level pressure: 1019.7 mb]
Winds: from the NE (40 degrees) at 8 MPH (7 knots; 3.6 m/s)
Visibility: 10 or more miles (16+ km)
Ceiling: 34000 feet AGL
Clouds: few clouds at 4000 feet AGL
few clouds at 25000 feet AGL
overcast cloud deck at 34000 feet AGL
Present Weather: no significant weather observed at this time
KTPA 180153Z 04007KT 10SM FEW040 FEW250 OVC340 29/21 A3011 RMK AO2 LTG DSNT SW-N SLP197 FRQ LTGICCC DSNT SW AND NW CB DSNT SW AND NW T02890206

Conditions at: KTPA observed 18 June 2018  00:53 UTC
Temperature: 30.6°C (87°F)
Dewpoint: 20.6°C (69°F) [RH = 55%]
Pressure (altimeter): 30.10 inches Hg (1019.4 mb)
[Sea-level pressure: 1019.3 mb]
Winds: from the NE (40 degrees) at 8 MPH (7 knots; 3.6 m/s)
Visibility: 10 or more miles (16+ km)
Ceiling: 34000 feet AGL
Clouds: few clouds at 5000 feet AGL
few clouds at 25000 feet AGL
overcast cloud deck at 34000 feet AGL
Present Weather: no significant weather observed at this time
KTPA 180053Z 04007KT 10SM FEW050TCU FEW250 OVC340 31/21 A3010 RMK AO2 SLP193 FRQ LTGIC DSNT N CB DSNT N TCU S T03060206

Conditions at: KTPA observed 17 June 2018  23:53 UTC
Temperature: 32.8°C (91°F)
Dewpoint: 19.4°C (67°F) [RH = 45%]
Pressure (altimeter): 30.06 inches Hg (1018.0 mb)
[Sea-level pressure: 1017.8 mb]
Winds: from the ENE (70 degrees) at 6 MPH (5 knots; 2.6 m/s)
Visibility: 10 or more miles (16+ km)
Ceiling: 34000 feet AGL
Clouds: few clouds at 6000 feet AGL
few clouds at 10000 feet AGL
scattered clouds at 23000 feet AGL
overcast cloud deck at 34000 feet AGL
Present Weather: no significant weather observed at this time
KTPA 172353Z 07005KT 10SM FEW060TCU FEW100 SCT230 OVC340 33/19 A3006 RMK AO2 SLP178 CB DSNT N TCU ALQDS 60000 T03280194 10350 20322 55004

Conditions at: KTPA observed 17 June 2018  22:53 UTC
Temperature: 33.3°C (92°F)
Dewpoint: 19.4°C (67°F) [RH = 44%]
Pressure (altimeter): 30.06 inches Hg (1018.0 mb)
[Sea-level pressure: 1017.7 mb]
Winds: variable direction winds at 3 MPH (3 knots; 1.6 m/s)
Visibility: 10 or more miles (16+ km)
Ceiling: 33000 feet AGL
Clouds: few clouds at 6000 feet AGL
scattered clouds at 23000 feet AGL
broken clouds at 33000 feet AGL
Present Weather: no significant weather observed at this time
KTPA 172253Z VRB03KT 10SM FEW060TCU SCT230 BKN330 33/19 A3006 RMK AO2 SLP177 CB DSNT E TCU N-S AND W T03330194

Conditions at: KTPA observed 17 June 2018  21:53 UTC
Temperature: 32.8°C (91°F)
Dewpoint: 20.0°C (68°F) [RH = 47%]
Pressure (altimeter): 30.06 inches Hg (1018.0 mb)
[Sea-level pressure: 1017.7 mb]
Winds: calm
Visibility: 10 or more miles (16+ km)
Ceiling: 35000 feet AGL
Clouds: scattered clouds at 5500 feet AGL
scattered clouds at 23000 feet AGL
broken clouds at 35000 feet AGL
Present Weather: no significant weather observed at this time
KTPA 172153Z 00000KT 10SM SCT055TCU SCT230 BKN350 33/20 A3006 RMK AO2 LTG DSNT N AND NW SLP177 CB DSNT N AND NE TCU ALQDS T03280200

Conditions at: KTPA observed 17 June 2018  20:53 UTC
Temperature: 32.8°C (91°F)
Dewpoint: 20.6°C (69°F) [RH = 49%]
Pressure (altimeter): 30.07 inches Hg (1018.4 mb)
[Sea-level pressure: 1018.2 mb]
Winds: from the SW (220 degrees) at 8 MPH (7 knots; 3.6 m/s)
Visibility: 10 or more miles (16+ km)
Ceiling: 5500 feet AGL
Clouds: broken clouds at 5500 feet AGL
broken clouds at 35000 feet AGL
Present Weather: no significant weather observed at this time
KTPA 172053Z 22007KT 10SM BKN055TCU BKN350 33/21 A3007 RMK AO2 LTG DSNT N SLP182 CB DVLPG DSNT N TCU ALQDS 60000 T03280206 56015

Conditions at: KTPA observed 17 June 2018  19:53 UTC
Temperature: 32.2°C (90°F)
Dewpoint: 21.1°C (70°F) [RH = 52%]
Pressure (altimeter): 30.08 inches Hg (1018.7 mb)
[Sea-level pressure: 1018.5 mb]
Winds: from the SSW (210 degrees) at 6 MPH (5 knots; 2.6 m/s)
Visibility: 10 or more miles (16+ km)
Ceiling: 5500 feet AGL
Clouds: broken clouds at 5500 feet AGL
broken clouds at 35000 feet AGL
Present Weather: no significant weather observed at this time
KTPA 171953Z 21005KT 10SM BKN055TCU BKN350 32/21 A3008 RMK AO2 RAB02E11 SLP185 TCU S P0000 T03220211

Conditions at: KTPA observed 17 June 2018  18:53 UTC
Temperature: 35.0°C (95°F)
Dewpoint: 18.9°C (66°F) [RH = 39%]
Pressure (altimeter): 30.10 inches Hg (1019.4 mb)
[Sea-level pressure: 1019.0 mb]
Winds: from the NE (50 degrees) at 7 MPH (6 knots; 3.1 m/s)
Visibility: 10 or more miles (16+ km)
Ceiling: 5500 feet AGL
Clouds: broken clouds at 5500 feet AGL
broken clouds at 32000 feet AGL
Present Weather: no significant weather observed at this time
KTPA 171853Z 05006KT 10SM BKN055 BKN320 35/19 A3010 RMK AO2 SLP190 CU BLDG ALQDS T03500189

Conditions at: KTPA observed 17 June 2018  17:53 UTC
Temperature: 34.4°C (94°F)
Dewpoint: 19.4°C (67°F) [RH = 41%]
Pressure (altimeter): 30.12 inches Hg (1020.1 mb)
[Sea-level pressure: 1019.7 mb]
Winds: from the NNE (20 degrees) at 9 MPH (8 knots; 4.2 m/s)
Visibility: 10 or more miles (16+ km)
Ceiling: 25000 feet AGL
Clouds: scattered clouds at 5000 feet AGL
broken clouds at 25000 feet AGL
Present Weather: no significant weather observed at this time
KTPA 171753Z 02008KT 10SM SCT050 BKN250 34/19 A3012 RMK AO2 SLP197 T03440194 10344 20267 58008

Conditions at: KTPA observed 17 June 2018  16:53 UTC
Temperature: 32.8°C (91°F)
Dewpoint: 20.0°C (68°F) [RH = 47%]
Pressure (altimeter): 30.13 inches Hg (1020.4 mb)
[Sea-level pressure: 1020.2 mb]
Winds: from the NNW (340 degrees) at 5 MPH (4 knots; 2.1 m/s)
Visibility: 10 or more miles (16+ km)
Ceiling: 25000 feet AGL
Clouds: scattered clouds at 4500 feet AGL
broken clouds at 25000 feet AGL
Present Weather: no significant weather observed at this time
KTPA 171653Z 34004KT 10SM SCT045 BKN250 33/20 A3013 RMK AO2 SLP202 T03280200

Conditions at: KTPA observed 17 June 2018  15:53 UTC
Temperature: 33.3°C (92°F)
Dewpoint: 20.6°C (69°F) [RH = 47%]
Pressure (altimeter): 30.14 inches Hg (1020.7 mb)
[Sea-level pressure: 1020.4 mb]
Winds: from the NE (50 degrees) at 5 MPH (4 knots; 2.1 m/s)
Visibility: 10 or more miles (16+ km)
Ceiling: 25000 feet AGL
Clouds: scattered clouds at 4000 feet AGL
broken clouds at 25000 feet AGL
Present Weather: no significant weather observed at this time
KTPA 171553Z 05004KT 10SM SCT040 BKN250 33/21 A3014 RMK AO2 SLP204 T03330206

Conditions at: KTPA observed 17 June 2018  14:53 UTC
Temperature: 32.2°C (90°F)
Dewpoint: 21.7°C (71°F) [RH = 54%]
Pressure (altimeter): 30.14 inches Hg (1020.7 mb)
[Sea-level pressure: 1020.5 mb]
Winds: variable direction winds at 5 MPH (4 knots; 2.1 m/s)
Visibility: 10 or more miles (16+ km)
Ceiling: at least 12,000 feet AGL
Clouds: few clouds at 3000 feet AGL
few clouds at 14000 feet AGL
scattered clouds at 25000 feet AGL
Present Weather: no significant weather observed at this time
KTPA 171453Z VRB04KT 10SM FEW030 FEW140 SCT250 32/22 A3014 RMK AO2 SLP205 T03220217 50008

Conditions at: KTPA observed 17 June 2018  12:53 UTC
Temperature: 28.3°C (83°F)
Dewpoint: 22.8°C (73°F) [RH = 72%]
Pressure (altimeter): 30.13 inches Hg (1020.4 mb)
[Sea-level pressure: 1020.3 mb]
Winds: calm
Visibility: 10 or more miles (16+ km)
Ceiling: at least 12,000 feet AGL
Clouds: few clouds at 14000 feet AGL
scattered clouds at 25000 feet AGL
Present Weather: no significant weather observed at this time
KTPA 171253Z 00000KT 10SM FEW140 SCT250 28/23 A3013 RMK AO2 SLP203 T02830228

Conditions at: KTPA observed 17 June 2018  11:53 UTC
Temperature: 26.7°C (80°F)
Dewpoint: 21.7°C (71°F) [RH = 74%]
Pressure (altimeter): 30.11 inches Hg (1019.7 mb)
[Sea-level pressure: 1019.7 mb]
Winds: calm
Visibility: 10 or more miles (16+ km)
Ceiling: 25000 feet AGL
Clouds: few clouds at 4000 feet AGL
scattered clouds at 19000 feet AGL
broken clouds at 25000 feet AGL
Present Weather: no significant weather observed at this time
KTPA 171153Z 00000KT 10SM FEW040 SCT190 BKN250 27/22 A3011 RMK AO2 SLP197 T02670217 10272 20256 51009

Conditions at: KTPA observed 17 June 2018  10:53 UTC
Temperature: 26.1°C (79°F)
Dewpoint: 21.1°C (70°F) [RH = 74%]
Pressure (altimeter): 30.11 inches Hg (1019.7 mb)
[Sea-level pressure: 1019.5 mb]
Winds: calm
Visibility: 10 or more miles (16+ km)
Ceiling: 30000 feet AGL
Clouds: scattered clouds at 23000 feet AGL
broken clouds at 30000 feet AGL
Present Weather: no significant weather observed at this time
KTPA 171053Z 00000KT 10SM R01L/1600VP6000FT SCT230 BKN300 26/21 A3011 RMK AO2 SLP195 T02610211

Conditions at: KTPA observed 17 June 2018  09:53 UTC
Temperature: 25.6°C (78°F)
Dewpoint: 21.1°C (70°F) [RH = 76%]
Pressure (altimeter): 30.09 inches Hg (1019.0 mb)
[Sea-level pressure: 1018.9 mb]
Winds: calm
Visibility: 10 or more miles (16+ km)
Ceiling: 30000 feet AGL
Clouds: scattered clouds at 23000 feet AGL
broken clouds at 30000 feet AGL
Present Weather: no significant weather observed at this time
KTPA 170953Z 00000KT 10SM R01L/2200VP6000FT SCT230 BKN300 26/21 A3009 RMK AO2 SLP189 T02560211

Conditions at: KTPA observed 17 June 2018  08:53 UTC
Temperature: 25.6°C (78°F)
Dewpoint: 21.1°C (70°F) [RH = 76%]
Pressure (altimeter): 30.09 inches Hg (1019.0 mb)
[Sea-level pressure: 1018.7 mb]
Winds: calm
Visibility: 10 or more miles (16+ km)
Ceiling: 30000 feet AGL
Clouds: scattered clouds at 23000 feet AGL
broken clouds at 30000 feet AGL
Present Weather: no significant weather observed at this time
KTPA 170853Z 00000KT 10SM SCT230 BKN300 26/21 A3009 RMK AO2 SLP187 T02560211 55002

Conditions at: KTPA observed 17 June 2018  07:53 UTC
Temperature: 26.1°C (79°F)
Dewpoint: 21.1°C (70°F) [RH = 74%]
Pressure (altimeter): 30.08 inches Hg (1018.7 mb)
[Sea-level pressure: 1018.5 mb]
Winds: calm
Visibility: 10 or more miles (16+ km)
Ceiling: 30000 feet AGL
Clouds: scattered clouds at 23000 feet AGL
broken clouds at 30000 feet AGL
Present Weather: no significant weather observed at this time
KTPA 170753Z 00000KT 10SM SCT230 BKN300 26/21 A3008 RMK AO2 SLP185 T02610211